Historique des mesures à Cassis (13260), France
Quotidien Résumé Mai 3, 2017 Unités:  US    Métrique   Métrique/US
« Précédent (Jour)
Suivant (Jour) »
Quotidien Hebdomadaire Mensuel Annuel Période au choix
  Maximum: Minimum: Moyenne:
Température: 32 °F 49.8 °F 57 °F
Point de rosée: 32 °F 43.9 °F 46.4 °F
Humidité: Humidity % 46 % 65 %
Vitesse du vent: WindSpeedKMH mph 0.0 mph 2.5 mph
Rafales: WindSpeedGustKMH mph - -
Vent:- - SSW
Pression: 0 in 29.9 in -
Précipitations: 0 in    
Historical Graphs
 
 
Mesures pour : Mai 3, 2017
Heure Temperature Point de rosée Pression Vent Vitesse du vent Rafales Humidité Pluie (par heure) Conditions
32 °F 32 °F 0 in Calm     Humidity % 0 in SoftwareType W/m2
00:10 52.7 °F 47.5 °F 30 in WNW 4.3 mph 4.3 mph 82 % 0 in open2300-1.11 W/m2
01:10 51.6 °F 46.2 °F 30 in Calm   2.1 mph 82 % 0 in open2300-1.11 W/m2
02:10 51.1 °F 45.9 °F 30 in Calm   2.1 mph 82 % 0 in open2300-1.11 W/m2
03:10 50.7 °F 45.7 °F 30 in NNE 2.1 mph 2.9 mph 83 % 0 in open2300-1.11 W/m2
04:10 50.7 °F 46 °F 30 in Calm   2.1 mph 84 % 0 in open2300-1.11 W/m2
05:10 50.5 °F 45.9 °F 30 in North 1.4 mph 1.4 mph 84 % 0 in open2300-1.11 W/m2
06:10 50.2 °F 44.8 °F 30 in NNW 3.2 mph 3.2 mph 82 % 0 in open2300-1.11 W/m2
07:11 49.8 °F 44.4 °F 30 in West 4.0 mph 4.0 mph 82 % 0 in open2300-1.11 W/m2
08:11 55.8 °F 47.8 °F 30 in NW 4.0 mph 5.0 mph 75 % 0 in open2300-1.11 W/m2
09:11 55 °F 46.6 °F 30 in North 1.8 mph 3.2 mph 73 % 0 in open2300-1.11 W/m2
10:10 56.8 °F 48.2 °F 30 in WNW 1.4 mph 1.4 mph 73 % 0 in open2300-1.11 W/m2
11:10 63.7 °F 52.9 °F 30 in NW 2.6 mph 2.9 mph 68 % 0 in open2300-1.11 W/m2
12:10 64.8 °F 47.7 °F 30 in NW 7.2 mph 16.9 mph 54 % 0 in open2300-1.11 W/m2
13:10 65.5 °F 46.4 °F 30 in WNW 2.6 mph 9.7 mph 50 % 0 in open2300-1.11 W/m2
14:10 65.3 °F 43.9 °F 30 in WSW 8.2 mph 16.9 mph 46 % 0 in open2300-1.11 W/m2
15:10 67.6 °F 49.8 °F 30 in SSW 5.0 mph 8.7 mph 53 % 0 in open2300-1.11 W/m2
16:10 67.3 °F 49.1 °F 29.9 in Calm   3.5 mph 52 % 0 in open2300-1.11 W/m2
17:10 66.7 °F 49.1 °F 29.9 in SSW 4.3 mph 7.2 mph 53 % 0 in open2300-1.11 W/m2
18:10 65.5 °F 47.8 °F 29.9 in West 2.6 mph 4.3 mph 53 % 0 in open2300-1.11 W/m2
19:10 64.2 °F 48.6 °F 29.9 in Calm   6.8 mph 57 % 0 in open2300-1.11 W/m2
20:10 61.5 °F 47.7 °F 29.9 in SSW 5.0 mph 6.4 mph 60 % 0 in open2300-1.11 W/m2
21:10 59 °F 46.8 °F 30 in NE 2.1 mph 2.1 mph 64 % 0 in open2300-1.11 W/m2
22:10 55.6 °F 45.1 °F 30 in Calm     68 % 0 in open2300-1.11 W/m2
23:11 54 °F 44.4 °F 30 in Calm     70 % 0 in open2300-1.11 W/m2
Observations météo à CASSIS
WU-History script by Weather Underground - 1 mb